sensor_id;sensor_type;location;lat;lon;timestamp;P1;durP1;ratioP1;P2;durP2;ratioP2
6163;SDS011;3114;48.362;10.994;2022-12-18T00:02:12;26.80;;;12.07;;
6163;SDS011;3114;48.362;10.994;2022-12-18T00:04:39;31.87;;;14.40;;
6163;SDS011;3114;48.362;10.994;2022-12-18T00:07:06;32.07;;;13.20;;
6163;SDS011;3114;48.362;10.994;2022-12-18T00:09:33;31.00;;;13.40;;
6163;SDS011;3114;48.362;10.994;2022-12-18T00:12:00;30.30;;;12.20;;
6163;SDS011;3114;48.362;10.994;2022-12-18T00:14:28;32.73;;;12.80;;
6163;SDS011;3114;48.362;10.994;2022-12-18T00:16:56;30.63;;;14.03;;
6163;SDS011;3114;48.362;10.994;2022-12-18T00:19:25;29.40;;;13.00;;
6163;SDS011;3114;48.362;10.994;2022-12-18T00:21:53;25.80;;;12.03;;
6163;SDS011;3114;48.362;10.994;2022-12-18T00:24:20;28.10;;;13.07;;
6163;SDS011;3114;48.362;10.994;2022-12-18T00:26:47;29.37;;;13.30;;
6163;SDS011;3114;48.362;10.994;2022-12-18T00:29:14;31.13;;;13.47;;
6163;SDS011;3114;48.362;10.994;2022-12-18T00:31:42;28.90;;;12.80;;
6163;SDS011;3114;48.362;10.994;2022-12-18T00:34:11;24.50;;;12.90;;
6163;SDS011;3114;48.362;10.994;2022-12-18T00:36:38;32.33;;;13.23;;
6163;SDS011;3114;48.362;10.994;2022-12-18T00:39:06;28.33;;;12.73;;
6163;SDS011;3114;48.362;10.994;2022-12-18T00:41:33;29.67;;;12.90;;
6163;SDS011;3114;48.362;10.994;2022-12-18T00:44:18;30.70;;;12.77;;
6163;SDS011;3114;48.362;10.994;2022-12-18T00:46:46;31.57;;;13.43;;
6163;SDS011;3114;48.362;10.994;2022-12-18T00:49:15;32.90;;;14.47;;
6163;SDS011;3114;48.362;10.994;2022-12-18T00:51:42;34.10;;;14.83;;
6163;SDS011;3114;48.362;10.994;2022-12-18T00:54:10;36.43;;;14.57;;
6163;SDS011;3114;48.362;10.994;2022-12-18T00:56:37;33.47;;;15.07;;
6163;SDS011;3114;48.362;10.994;2022-12-18T00:59:04;32.77;;;14.27;;
6163;SDS011;3114;48.362;10.994;2022-12-18T01:01:32;29.60;;;12.80;;
6163;SDS011;3114;48.362;10.994;2022-12-18T01:04:00;30.20;;;12.60;;
6163;SDS011;3114;48.362;10.994;2022-12-18T01:06:28;27.93;;;11.03;;
6163;SDS011;3114;48.362;10.994;2022-12-18T01:08:56;23.97;;;10.90;;
6163;SDS011;3114;48.362;10.994;2022-12-18T01:11:23;31.23;;;13.17;;
6163;SDS011;3114;48.362;10.994;2022-12-18T01:13:51;30.37;;;11.77;;
6163;SDS011;3114;48.362;10.994;2022-12-18T01:16:19;34.97;;;12.63;;
6163;SDS011;3114;48.362;10.994;2022-12-18T01:18:46;27.60;;;12.17;;
6163;SDS011;3114;48.362;10.994;2022-12-18T01:21:14;31.23;;;13.03;;
6163;SDS011;3114;48.362;10.994;2022-12-18T01:23:46;35.80;;;13.53;;
6163;SDS011;3114;48.362;10.994;2022-12-18T01:26:14;36.93;;;13.60;;
6163;SDS011;3114;48.362;10.994;2022-12-18T01:28:42;32.67;;;14.13;;
6163;SDS011;3114;48.362;10.994;2022-12-18T01:31:13;31.77;;;12.43;;
6163;SDS011;3114;48.362;10.994;2022-12-18T01:33:41;35.70;;;13.73;;
6163;SDS011;3114;48.362;10.994;2022-12-18T01:36:08;32.83;;;13.23;;
6163;SDS011;3114;48.362;10.994;2022-12-18T01:38:41;35.23;;;13.57;;
6163;SDS011;3114;48.362;10.994;2022-12-18T01:41:09;28.73;;;13.30;;
6163;SDS011;3114;48.362;10.994;2022-12-18T01:43:40;29.83;;;13.13;;
6163;SDS011;3114;48.362;10.994;2022-12-18T01:46:08;29.63;;;13.43;;
6163;SDS011;3114;48.362;10.994;2022-12-18T01:48:35;37.40;;;14.90;;
6163;SDS011;3114;48.362;10.994;2022-12-18T01:51:02;32.63;;;13.03;;
6163;SDS011;3114;48.362;10.994;2022-12-18T01:53:31;31.70;;;13.23;;
6163;SDS011;3114;48.362;10.994;2022-12-18T01:55:58;36.40;;;15.07;;
6163;SDS011;3114;48.362;10.994;2022-12-18T01:58:30;34.87;;;13.50;;
6163;SDS011;3114;48.362;10.994;2022-12-18T02:00:59;30.00;;;12.87;;
6163;SDS011;3114;48.362;10.994;2022-12-18T02:03:26;27.30;;;12.97;;
6163;SDS011;3114;48.362;10.994;2022-12-18T02:05:55;29.50;;;12.43;;
6163;SDS011;3114;48.362;10.994;2022-12-18T02:08:25;31.83;;;12.80;;
6163;SDS011;3114;48.362;10.994;2022-12-18T02:10:57;24.97;;;11.40;;
6163;SDS011;3114;48.362;10.994;2022-12-18T02:13:35;21.10;;;10.77;;
6163;SDS011;3114;48.362;10.994;2022-12-18T02:16:04;26.20;;;11.70;;
6163;SDS011;3114;48.362;10.994;2022-12-18T02:18:35;26.77;;;11.63;;
6163;SDS011;3114;48.362;10.994;2022-12-18T02:21:06;33.93;;;13.10;;
6163;SDS011;3114;48.362;10.994;2022-12-18T02:23:39;29.07;;;11.57;;
6163;SDS011;3114;48.362;10.994;2022-12-18T02:26:11;28.87;;;12.70;;
6163;SDS011;3114;48.362;10.994;2022-12-18T02:28:41;25.70;;;11.73;;
6163;SDS011;3114;48.362;10.994;2022-12-18T02:31:11;28.23;;;12.60;;
6163;SDS011;3114;48.362;10.994;2022-12-18T02:33:38;32.83;;;13.13;;
6163;SDS011;3114;48.362;10.994;2022-12-18T02:36:06;27.23;;;12.43;;
6163;SDS011;3114;48.362;10.994;2022-12-18T02:38:35;34.27;;;13.07;;
6163;SDS011;3114;48.362;10.994;2022-12-18T02:41:03;31.30;;;12.30;;
6163;SDS011;3114;48.362;10.994;2022-12-18T02:43:32;30.20;;;12.43;;
6163;SDS011;3114;48.362;10.994;2022-12-18T02:46:00;30.73;;;12.90;;
6163;SDS011;3114;48.362;10.994;2022-12-18T02:48:31;31.93;;;13.83;;
6163;SDS011;3114;48.362;10.994;2022-12-18T02:50:59;27.00;;;11.93;;
6163;SDS011;3114;48.362;10.994;2022-12-18T02:53:31;25.27;;;11.63;;
6163;SDS011;3114;48.362;10.994;2022-12-18T02:56:03;26.87;;;11.67;;
6163;SDS011;3114;48.362;10.994;2022-12-18T02:58:36;29.83;;;11.03;;
6163;SDS011;3114;48.362;10.994;2022-12-18T03:01:08;23.57;;;10.40;;
6163;SDS011;3114;48.362;10.994;2022-12-18T03:03:37;27.50;;;10.73;;
6163;SDS011;3114;48.362;10.994;2022-12-18T03:06:06;25.97;;;10.50;;
6163;SDS011;3114;48.362;10.994;2022-12-18T03:08:36;25.93;;;10.50;;
6163;SDS011;3114;48.362;10.994;2022-12-18T03:11:05;19.83;;;9.70;;
6163;SDS011;3114;48.362;10.994;2022-12-18T03:13:33;22.20;;;9.70;;
6163;SDS011;3114;48.362;10.994;2022-12-18T03:16:03;20.73;;;9.43;;
6163;SDS011;3114;48.362;10.994;2022-12-18T03:18:33;21.37;;;10.03;;
6163;SDS011;3114;48.362;10.994;2022-12-18T03:21:02;24.50;;;10.73;;
6163;SDS011;3114;48.362;10.994;2022-12-18T03:23:32;22.73;;;9.70;;
6163;SDS011;3114;48.362;10.994;2022-12-18T03:26:02;25.87;;;10.07;;
6163;SDS011;3114;48.362;10.994;2022-12-18T03:28:31;24.63;;;9.63;;
6163;SDS011;3114;48.362;10.994;2022-12-18T03:30:59;21.83;;;9.63;;
6163;SDS011;3114;48.362;10.994;2022-12-18T03:33:30;20.67;;;9.73;;
6163;SDS011;3114;48.362;10.994;2022-12-18T03:35:59;23.03;;;9.77;;
6163;SDS011;3114;48.362;10.994;2022-12-18T03:38:27;18.63;;;9.20;;
6163;SDS011;3114;48.362;10.994;2022-12-18T03:40:56;21.30;;;9.17;;
6163;SDS011;3114;48.362;10.994;2022-12-18T03:43:31;18.80;;;9.00;;
6163;SDS011;3114;48.362;10.994;2022-12-18T03:46:02;23.63;;;9.63;;
6163;SDS011;3114;48.362;10.994;2022-12-18T03:48:35;22.70;;;9.87;;
6163;SDS011;3114;48.362;10.994;2022-12-18T03:51:05;25.13;;;10.60;;
6163;SDS011;3114;48.362;10.994;2022-12-18T03:53:36;25.70;;;10.07;;
6163;SDS011;3114;48.362;10.994;2022-12-18T03:56:05;24.30;;;10.37;;
6163;SDS011;3114;48.362;10.994;2022-12-18T03:58:33;22.37;;;10.10;;
6163;SDS011;3114;48.362;10.994;2022-12-18T04:01:02;21.47;;;9.60;;
6163;SDS011;3114;48.362;10.994;2022-12-18T04:03:30;24.40;;;9.67;;
6163;SDS011;3114;48.362;10.994;2022-12-18T04:06:00;23.33;;;10.83;;
6163;SDS011;3114;48.362;10.994;2022-12-18T04:08:29;23.70;;;10.10;;
6163;SDS011;3114;48.362;10.994;2022-12-18T04:10:56;21.37;;;10.23;;
6163;SDS011;3114;48.362;10.994;2022-12-18T04:13:23;25.83;;;10.73;;
6163;SDS011;3114;48.362;10.994;2022-12-18T04:15:51;22.57;;;9.93;;
6163;SDS011;3114;48.362;10.994;2022-12-18T04:18:18;25.10;;;10.17;;
6163;SDS011;3114;48.362;10.994;2022-12-18T04:20:45;22.67;;;10.00;;
6163;SDS011;3114;48.362;10.994;2022-12-18T04:23:14;21.90;;;9.53;;
6163;SDS011;3114;48.362;10.994;2022-12-18T04:25:41;25.57;;;10.63;;
6163;SDS011;3114;48.362;10.994;2022-12-18T04:28:08;22.97;;;10.33;;
6163;SDS011;3114;48.362;10.994;2022-12-18T04:30:36;25.33;;;9.97;;
6163;SDS011;3114;48.362;10.994;2022-12-18T04:33:03;26.93;;;10.23;;
6163;SDS011;3114;48.362;10.994;2022-12-18T04:35:30;25.60;;;11.20;;
6163;SDS011;3114;48.362;10.994;2022-12-18T04:37:57;30.73;;;11.23;;
6163;SDS011;3114;48.362;10.994;2022-12-18T04:40:26;26.50;;;11.17;;
6163;SDS011;3114;48.362;10.994;2022-12-18T04:42:53;26.80;;;10.60;;
6163;SDS011;3114;48.362;10.994;2022-12-18T04:45:20;21.83;;;10.53;;
6163;SDS011;3114;48.362;10.994;2022-12-18T04:47:47;26.60;;;11.60;;
6163;SDS011;3114;48.362;10.994;2022-12-18T04:50:14;25.50;;;10.63;;
6163;SDS011;3114;48.362;10.994;2022-12-18T04:52:42;25.07;;;11.03;;
6163;SDS011;3114;48.362;10.994;2022-12-18T04:55:09;25.90;;;10.67;;
6163;SDS011;3114;48.362;10.994;2022-12-18T04:57:37;24.73;;;10.97;;
6163;SDS011;3114;48.362;10.994;2022-12-18T05:00:05;27.57;;;10.90;;
6163;SDS011;3114;48.362;10.994;2022-12-18T05:02:33;22.17;;;10.70;;
6163;SDS011;3114;48.362;10.994;2022-12-18T05:05:00;27.30;;;10.87;;
6163;SDS011;3114;48.362;10.994;2022-12-18T05:07:27;26.43;;;10.27;;
6163;SDS011;3114;48.362;10.994;2022-12-18T05:09:55;23.47;;;10.60;;
6163;SDS011;3114;48.362;10.994;2022-12-18T05:12:22;21.27;;;9.97;;
6163;SDS011;3114;48.362;10.994;2022-12-18T05:14:51;26.70;;;10.53;;
6163;SDS011;3114;48.362;10.994;2022-12-18T05:17:18;26.77;;;11.57;;
6163;SDS011;3114;48.362;10.994;2022-12-18T05:19:45;23.83;;;10.07;;
6163;SDS011;3114;48.362;10.994;2022-12-18T05:22:13;27.37;;;11.07;;
6163;SDS011;3114;48.362;10.994;2022-12-18T05:24:40;24.47;;;10.97;;
6163;SDS011;3114;48.362;10.994;2022-12-18T05:27:07;27.93;;;12.53;;
6163;SDS011;3114;48.362;10.994;2022-12-18T05:29:34;31.50;;;13.50;;
6163;SDS011;3114;48.362;10.994;2022-12-18T05:32:03;32.70;;;13.07;;
6163;SDS011;3114;48.362;10.994;2022-12-18T05:34:30;32.40;;;13.73;;
6163;SDS011;3114;48.362;10.994;2022-12-18T05:36:58;31.00;;;13.20;;
6163;SDS011;3114;48.362;10.994;2022-12-18T05:39:25;35.43;;;13.43;;
6163;SDS011;3114;48.362;10.994;2022-12-18T05:41:52;31.27;;;12.70;;
6163;SDS011;3114;48.362;10.994;2022-12-18T05:44:20;28.87;;;11.73;;
6163;SDS011;3114;48.362;10.994;2022-12-18T05:46:47;31.17;;;12.50;;
6163;SDS011;3114;48.362;10.994;2022-12-18T05:49:15;31.10;;;12.57;;
6163;SDS011;3114;48.362;10.994;2022-12-18T05:51:43;26.60;;;11.90;;
6163;SDS011;3114;48.362;10.994;2022-12-18T05:54:11;33.13;;;12.43;;
6163;SDS011;3114;48.362;10.994;2022-12-18T05:56:38;27.50;;;11.13;;
6163;SDS011;3114;48.362;10.994;2022-12-18T05:59:05;27.37;;;11.67;;
6163;SDS011;3114;48.362;10.994;2022-12-18T06:01:32;31.03;;;12.17;;
6163;SDS011;3114;48.362;10.994;2022-12-18T06:03:59;24.60;;;11.00;;
6163;SDS011;3114;48.362;10.994;2022-12-18T06:06:28;24.07;;;10.93;;
6163;SDS011;3114;48.362;10.994;2022-12-18T06:08:55;31.03;;;12.00;;
6163;SDS011;3114;48.362;10.994;2022-12-18T06:11:23;31.63;;;12.53;;
6163;SDS011;3114;48.362;10.994;2022-12-18T06:13:52;28.93;;;12.40;;
6163;SDS011;3114;48.362;10.994;2022-12-18T06:16:20;28.43;;;12.60;;
6163;SDS011;3114;48.362;10.994;2022-12-18T06:18:47;29.57;;;11.03;;
6163;SDS011;3114;48.362;10.994;2022-12-18T06:21:14;30.53;;;12.73;;
6163;SDS011;3114;48.362;10.994;2022-12-18T06:23:43;27.00;;;11.03;;
6163;SDS011;3114;48.362;10.994;2022-12-18T06:26:10;31.43;;;12.00;;
6163;SDS011;3114;48.362;10.994;2022-12-18T06:28:38;31.17;;;12.27;;
6163;SDS011;3114;48.362;10.994;2022-12-18T06:31:05;29.07;;;11.60;;
6163;SDS011;3114;48.362;10.994;2022-12-18T06:33:33;26.87;;;11.20;;
6163;SDS011;3114;48.362;10.994;2022-12-18T06:36:00;26.37;;;11.53;;
6163;SDS011;3114;48.362;10.994;2022-12-18T06:38:28;25.97;;;11.03;;
6163;SDS011;3114;48.362;10.994;2022-12-18T06:40:57;26.13;;;10.77;;
6163;SDS011;3114;48.362;10.994;2022-12-18T06:43:24;23.50;;;10.73;;
6163;SDS011;3114;48.362;10.994;2022-12-18T06:45:57;23.43;;;10.50;;
6163;SDS011;3114;48.362;10.994;2022-12-18T06:48:24;24.40;;;10.43;;
6163;SDS011;3114;48.362;10.994;2022-12-18T06:50:51;24.03;;;9.30;;
6163;SDS011;3114;48.362;10.994;2022-12-18T06:53:18;21.13;;;9.70;;
6163;SDS011;3114;48.362;10.994;2022-12-18T06:55:45;21.10;;;10.03;;
6163;SDS011;3114;48.362;10.994;2022-12-18T06:58:14;26.10;;;10.67;;
6163;SDS011;3114;48.362;10.994;2022-12-18T07:00:41;24.87;;;10.07;;
6163;SDS011;3114;48.362;10.994;2022-12-18T07:03:08;29.37;;;11.10;;
6163;SDS011;3114;48.362;10.994;2022-12-18T07:05:39;22.90;;;9.87;;
6163;SDS011;3114;48.362;10.994;2022-12-18T07:08:06;27.80;;;11.03;;
6163;SDS011;3114;48.362;10.994;2022-12-18T07:10:33;26.03;;;10.97;;
6163;SDS011;3114;48.362;10.994;2022-12-18T07:13:00;27.80;;;12.03;;
6163;SDS011;3114;48.362;10.994;2022-12-18T07:15:29;27.90;;;11.30;;
6163;SDS011;3114;48.362;10.994;2022-12-18T07:17:56;23.53;;;11.77;;
6163;SDS011;3114;48.362;10.994;2022-12-18T07:20:23;31.50;;;11.50;;
6163;SDS011;3114;48.362;10.994;2022-12-18T07:22:50;27.30;;;11.63;;
6163;SDS011;3114;48.362;10.994;2022-12-18T07:25:18;29.30;;;11.67;;
6163;SDS011;3114;48.362;10.994;2022-12-18T07:27:45;24.47;;;9.80;;
6163;SDS011;3114;48.362;10.994;2022-12-18T07:30:12;25.10;;;10.37;;
6163;SDS011;3114;48.362;10.994;2022-12-18T07:32:41;22.83;;;9.60;;
6163;SDS011;3114;48.362;10.994;2022-12-18T07:35:08;26.73;;;10.10;;
6163;SDS011;3114;48.362;10.994;2022-12-18T07:37:35;20.83;;;10.30;;
6163;SDS011;3114;48.362;10.994;2022-12-18T07:40:03;26.07;;;10.87;;
6163;SDS011;3114;48.362;10.994;2022-12-18T07:42:30;29.10;;;11.60;;
6163;SDS011;3114;48.362;10.994;2022-12-18T07:44:57;23.07;;;9.77;;
6163;SDS011;3114;48.362;10.994;2022-12-18T07:47:24;27.13;;;11.00;;
6163;SDS011;3114;48.362;10.994;2022-12-18T07:49:53;27.93;;;11.03;;
6163;SDS011;3114;48.362;10.994;2022-12-18T07:52:20;23.73;;;10.37;;
6163;SDS011;3114;48.362;10.994;2022-12-18T07:54:47;23.13;;;9.93;;
6163;SDS011;3114;48.362;10.994;2022-12-18T07:57:15;21.73;;;10.07;;
6163;SDS011;3114;48.362;10.994;2022-12-18T07:59:42;23.57;;;9.97;;
6163;SDS011;3114;48.362;10.994;2022-12-18T08:02:10;24.83;;;9.87;;
6163;SDS011;3114;48.362;10.994;2022-12-18T08:04:37;21.50;;;9.80;;
6163;SDS011;3114;48.362;10.994;2022-12-18T08:07:05;21.67;;;10.07;;
6163;SDS011;3114;48.362;10.994;2022-12-18T08:09:32;26.40;;;10.37;;
6163;SDS011;3114;48.362;10.994;2022-12-18T08:12:00;25.77;;;10.93;;
6163;SDS011;3114;48.362;10.994;2022-12-18T08:14:27;25.27;;;10.90;;
6163;SDS011;3114;48.362;10.994;2022-12-18T08:16:54;25.27;;;10.83;;
6163;SDS011;3114;48.362;10.994;2022-12-18T08:19:21;28.80;;;12.17;;
6163;SDS011;3114;48.362;10.994;2022-12-18T08:21:48;25.33;;;10.77;;
6163;SDS011;3114;48.362;10.994;2022-12-18T08:24:17;26.00;;;10.77;;
6163;SDS011;3114;48.362;10.994;2022-12-18T08:26:44;26.50;;;11.37;;
6163;SDS011;3114;48.362;10.994;2022-12-18T08:29:11;23.57;;;10.80;;
6163;SDS011;3114;48.362;10.994;2022-12-18T08:31:39;24.80;;;11.37;;
6163;SDS011;3114;48.362;10.994;2022-12-18T08:34:07;21.93;;;10.63;;
6163;SDS011;3114;48.362;10.994;2022-12-18T08:36:34;26.17;;;11.70;;
6163;SDS011;3114;48.362;10.994;2022-12-18T08:39:02;22.50;;;10.83;;
6163;SDS011;3114;48.362;10.994;2022-12-18T08:41:31;23.93;;;10.80;;
6163;SDS011;3114;48.362;10.994;2022-12-18T08:43:58;29.47;;;12.03;;
6163;SDS011;3114;48.362;10.994;2022-12-18T08:46:43;28.33;;;11.37;;
6163;SDS011;3114;48.362;10.994;2022-12-18T08:49:11;28.53;;;11.77;;
6163;SDS011;3114;48.362;10.994;2022-12-18T08:51:38;27.07;;;11.97;;
6163;SDS011;3114;48.362;10.994;2022-12-18T08:54:05;28.67;;;11.93;;
6163;SDS011;3114;48.362;10.994;2022-12-18T08:56:34;27.43;;;11.47;;
6163;SDS011;3114;48.362;10.994;2022-12-18T08:59:01;25.27;;;11.83;;
6163;SDS011;3114;48.362;10.994;2022-12-18T09:01:29;28.23;;;12.83;;
6163;SDS011;3114;48.362;10.994;2022-12-18T09:03:56;24.77;;;11.43;;
6163;SDS011;3114;48.362;10.994;2022-12-18T09:06:23;25.73;;;11.53;;
6163;SDS011;3114;48.362;10.994;2022-12-18T09:08:51;25.83;;;11.53;;
6163;SDS011;3114;48.362;10.994;2022-12-18T09:11:20;30.27;;;11.83;;
6163;SDS011;3114;48.362;10.994;2022-12-18T09:13:48;27.03;;;11.60;;
6163;SDS011;3114;48.362;10.994;2022-12-18T09:16:16;25.60;;;11.33;;
6163;SDS011;3114;48.362;10.994;2022-12-18T09:18:44;26.60;;;11.70;;
6163;SDS011;3114;48.362;10.994;2022-12-18T09:21:12;27.30;;;10.87;;
6163;SDS011;3114;48.362;10.994;2022-12-18T09:23:40;23.37;;;10.50;;
6163;SDS011;3114;48.362;10.994;2022-12-18T09:26:07;26.47;;;11.63;;
6163;SDS011;3114;48.362;10.994;2022-12-18T09:28:35;29.30;;;11.40;;
6163;SDS011;3114;48.362;10.994;2022-12-18T09:31:07;25.30;;;11.17;;
6163;SDS011;3114;48.362;10.994;2022-12-18T09:33:35;28.80;;;11.43;;
6163;SDS011;3114;48.362;10.994;2022-12-18T09:36:02;28.40;;;11.47;;
6163;SDS011;3114;48.362;10.994;2022-12-18T09:38:30;32.03;;;12.03;;
6163;SDS011;3114;48.362;10.994;2022-12-18T09:40:59;27.23;;;11.77;;
6163;SDS011;3114;48.362;10.994;2022-12-18T09:43:28;30.80;;;11.50;;
6163;SDS011;3114;48.362;10.994;2022-12-18T09:45:58;27.90;;;12.13;;
6163;SDS011;3114;48.362;10.994;2022-12-18T09:48:28;27.20;;;12.20;;
6163;SDS011;3114;48.362;10.994;2022-12-18T09:50:57;26.30;;;11.00;;
6163;SDS011;3114;48.362;10.994;2022-12-18T09:53:28;26.67;;;11.57;;
6163;SDS011;3114;48.362;10.994;2022-12-18T09:55:57;26.20;;;11.93;;
6163;SDS011;3114;48.362;10.994;2022-12-18T09:58:26;31.10;;;13.30;;
6163;SDS011;3114;48.362;10.994;2022-12-18T10:00:55;32.23;;;12.40;;
6163;SDS011;3114;48.362;10.994;2022-12-18T10:03:23;26.93;;;12.00;;
6163;SDS011;3114;48.362;10.994;2022-12-18T10:05:54;25.97;;;11.13;;
6163;SDS011;3114;48.362;10.994;2022-12-18T10:08:28;24.50;;;10.57;;
6163;SDS011;3114;48.362;10.994;2022-12-18T10:10:58;24.63;;;10.80;;
6163;SDS011;3114;48.362;10.994;2022-12-18T10:13:27;28.20;;;11.93;;
6163;SDS011;3114;48.362;10.994;2022-12-18T10:16:00;24.00;;;11.30;;
6163;SDS011;3114;48.362;10.994;2022-12-18T10:18:34;30.37;;;11.73;;
6163;SDS011;3114;48.362;10.994;2022-12-18T10:21:05;27.87;;;10.63;;
6163;SDS011;3114;48.362;10.994;2022-12-18T10:23:37;25.63;;;11.53;;
6163;SDS011;3114;48.362;10.994;2022-12-18T10:26:07;21.20;;;10.03;;
6163;SDS011;3114;48.362;10.994;2022-12-18T10:28:35;32.10;;;11.63;;
6163;SDS011;3114;48.362;10.994;2022-12-18T10:31:04;26.27;;;11.07;;
6163;SDS011;3114;48.362;10.994;2022-12-18T10:33:32;26.03;;;11.33;;
6163;SDS011;3114;48.362;10.994;2022-12-18T10:36:00;27.53;;;12.80;;
6163;SDS011;3114;48.362;10.994;2022-12-18T10:38:29;27.60;;;12.00;;
6163;SDS011;3114;48.362;10.994;2022-12-18T10:40:57;25.80;;;12.37;;
6163;SDS011;3114;48.362;10.994;2022-12-18T10:43:26;30.27;;;11.77;;
6163;SDS011;3114;48.362;10.994;2022-12-18T10:46:01;26.43;;;11.90;;
6163;SDS011;3114;48.362;10.994;2022-12-18T10:48:30;25.67;;;11.43;;
6163;SDS011;3114;48.362;10.994;2022-12-18T10:50:58;23.37;;;11.07;;
6163;SDS011;3114;48.362;10.994;2022-12-18T10:53:27;23.93;;;11.13;;
6163;SDS011;3114;48.362;10.994;2022-12-18T10:55:57;24.87;;;11.27;;
6163;SDS011;3114;48.362;10.994;2022-12-18T10:58:27;23.53;;;10.63;;
6163;SDS011;3114;48.362;10.994;2022-12-18T11:01:07;28.60;;;11.57;;
6163;SDS011;3114;48.362;10.994;2022-12-18T11:03:35;26.43;;;11.80;;
6163;SDS011;3114;48.362;10.994;2022-12-18T11:06:05;22.47;;;11.23;;
6163;SDS011;3114;48.362;10.994;2022-12-18T11:08:32;27.50;;;11.57;;
6163;SDS011;3114;48.362;10.994;2022-12-18T11:11:00;24.03;;;11.07;;
6163;SDS011;3114;48.362;10.994;2022-12-18T11:13:28;21.70;;;10.43;;
6163;SDS011;3114;48.362;10.994;2022-12-18T11:15:56;23.87;;;10.67;;
6163;SDS011;3114;48.362;10.994;2022-12-18T11:18:25;25.83;;;11.53;;
6163;SDS011;3114;48.362;10.994;2022-12-18T11:20:53;21.00;;;10.37;;
6163;SDS011;3114;48.362;10.994;2022-12-18T11:23:22;20.70;;;10.00;;
6163;SDS011;3114;48.362;10.994;2022-12-18T11:25:50;24.17;;;11.57;;
6163;SDS011;3114;48.362;10.994;2022-12-18T11:28:33;22.40;;;11.03;;
6163;SDS011;3114;48.362;10.994;2022-12-18T11:33:48;23.00;;;10.27;;
6163;SDS011;3114;48.362;10.994;2022-12-18T11:36:16;26.10;;;10.60;;
6163;SDS011;3114;48.362;10.994;2022-12-18T11:38:44;25.13;;;10.37;;
6163;SDS011;3114;48.362;10.994;2022-12-18T11:41:14;26.67;;;11.00;;
6163;SDS011;3114;48.362;10.994;2022-12-18T11:43:47;22.40;;;10.20;;
6163;SDS011;3114;48.362;10.994;2022-12-18T11:46:17;25.77;;;10.13;;
6163;SDS011;3114;48.362;10.994;2022-12-18T11:48:47;22.93;;;10.80;;
6163;SDS011;3114;48.362;10.994;2022-12-18T11:51:17;20.77;;;9.07;;
6163;SDS011;3114;48.362;10.994;2022-12-18T11:53:47;19.93;;;9.67;;
6163;SDS011;3114;48.362;10.994;2022-12-18T11:56:19;24.30;;;11.07;;
6163;SDS011;3114;48.362;10.994;2022-12-18T11:58:54;22.30;;;10.27;;
6163;SDS011;3114;48.362;10.994;2022-12-18T12:01:33;21.40;;;9.87;;
6163;SDS011;3114;48.362;10.994;2022-12-18T12:06:58;24.03;;;10.47;;
6163;SDS011;3114;48.362;10.994;2022-12-18T12:09:29;21.13;;;10.03;;
6163;SDS011;3114;48.362;10.994;2022-12-18T12:12:02;23.33;;;10.63;;
6163;SDS011;3114;48.362;10.994;2022-12-18T12:14:38;22.70;;;10.80;;
6163;SDS011;3114;48.362;10.994;2022-12-18T12:17:08;20.43;;;10.10;;
6163;SDS011;3114;48.362;10.994;2022-12-18T12:19:38;23.83;;;9.90;;
6163;SDS011;3114;48.362;10.994;2022-12-18T12:22:12;24.27;;;9.93;;
6163;SDS011;3114;48.362;10.994;2022-12-18T12:24:48;22.10;;;10.40;;
6163;SDS011;3114;48.362;10.994;2022-12-18T12:27:20;24.10;;;10.77;;
6163;SDS011;3114;48.362;10.994;2022-12-18T12:29:54;24.20;;;11.13;;
6163;SDS011;3114;48.362;10.994;2022-12-18T12:32:28;23.63;;;10.80;;
6163;SDS011;3114;48.362;10.994;2022-12-18T12:35:04;22.53;;;10.33;;
6163;SDS011;3114;48.362;10.994;2022-12-18T12:37:34;25.40;;;10.50;;
6163;SDS011;3114;48.362;10.994;2022-12-18T12:40:06;24.37;;;11.03;;
6163;SDS011;3114;48.362;10.994;2022-12-18T12:42:34;21.30;;;9.73;;
6163;SDS011;3114;48.362;10.994;2022-12-18T12:45:23;21.73;;;10.03;;
6163;SDS011;3114;48.362;10.994;2022-12-18T12:47:53;21.90;;;9.23;;
6163;SDS011;3114;48.362;10.994;2022-12-18T12:50:21;23.70;;;10.60;;
6163;SDS011;3114;48.362;10.994;2022-12-18T12:52:50;22.47;;;10.43;;
6163;SDS011;3114;48.362;10.994;2022-12-18T12:55:18;18.50;;;9.00;;
6163;SDS011;3114;48.362;10.994;2022-12-18T12:57:48;22.67;;;9.30;;
6163;SDS011;3114;48.362;10.994;2022-12-18T13:00:18;23.63;;;10.13;;
6163;SDS011;3114;48.362;10.994;2022-12-18T13:02:49;21.53;;;10.53;;
6163;SDS011;3114;48.362;10.994;2022-12-18T13:05:19;19.57;;;9.03;;
6163;SDS011;3114;48.362;10.994;2022-12-18T13:07:51;21.20;;;9.77;;
6163;SDS011;3114;48.362;10.994;2022-12-18T13:10:24;24.23;;;10.57;;
6163;SDS011;3114;48.362;10.994;2022-12-18T13:12:52;20.03;;;10.20;;
6163;SDS011;3114;48.362;10.994;2022-12-18T13:15:22;22.53;;;9.87;;
6163;SDS011;3114;48.362;10.994;2022-12-18T13:18:02;23.57;;;10.37;;
6163;SDS011;3114;48.362;10.994;2022-12-18T13:20:32;22.10;;;9.73;;
6163;SDS011;3114;48.362;10.994;2022-12-18T13:23:00;22.23;;;10.70;;
6163;SDS011;3114;48.362;10.994;2022-12-18T13:25:31;23.20;;;9.63;;
6163;SDS011;3114;48.362;10.994;2022-12-18T13:30:51;19.90;;;8.57;;
6163;SDS011;3114;48.362;10.994;2022-12-18T13:36:27;16.87;;;8.33;;
6163;SDS011;3114;48.362;10.994;2022-12-18T13:39:11;20.67;;;9.00;;
6163;SDS011;3114;48.362;10.994;2022-12-18T13:41:48;22.77;;;9.53;;
6163;SDS011;3114;48.362;10.994;2022-12-18T13:44:22;24.17;;;10.07;;
6163;SDS011;3114;48.362;10.994;2022-12-18T13:46:51;17.23;;;8.57;;
6163;SDS011;3114;48.362;10.994;2022-12-18T13:49:20;22.53;;;9.70;;
6163;SDS011;3114;48.362;10.994;2022-12-18T13:51:50;19.87;;;8.73;;
6163;SDS011;3114;48.362;10.994;2022-12-18T13:54:19;20.97;;;9.47;;
6163;SDS011;3114;48.362;10.994;2022-12-18T13:56:47;22.10;;;9.90;;
6163;SDS011;3114;48.362;10.994;2022-12-18T13:59:17;22.00;;;9.93;;
6163;SDS011;3114;48.362;10.994;2022-12-18T14:01:45;22.73;;;10.30;;
6163;SDS011;3114;48.362;10.994;2022-12-18T14:04:18;22.27;;;10.27;;
6163;SDS011;3114;48.362;10.994;2022-12-18T14:06:45;21.77;;;10.70;;
6163;SDS011;3114;48.362;10.994;2022-12-18T14:09:15;24.03;;;10.80;;
6163;SDS011;3114;48.362;10.994;2022-12-18T14:11:47;23.83;;;9.83;;
6163;SDS011;3114;48.362;10.994;2022-12-18T14:14:15;26.57;;;9.90;;
6163;SDS011;3114;48.362;10.994;2022-12-18T14:16:43;20.90;;;9.53;;
6163;SDS011;3114;48.362;10.994;2022-12-18T14:19:12;21.47;;;9.37;;
6163;SDS011;3114;48.362;10.994;2022-12-18T14:21:44;22.90;;;10.43;;
6163;SDS011;3114;48.362;10.994;2022-12-18T14:24:13;23.37;;;10.27;;
6163;SDS011;3114;48.362;10.994;2022-12-18T14:26:42;18.47;;;9.23;;
6163;SDS011;3114;48.362;10.994;2022-12-18T14:29:20;21.13;;;8.90;;
6163;SDS011;3114;48.362;10.994;2022-12-18T14:34:30;21.97;;;10.07;;
6163;SDS011;3114;48.362;10.994;2022-12-18T14:36:57;21.80;;;9.37;;
6163;SDS011;3114;48.362;10.994;2022-12-18T14:39:24;25.17;;;9.77;;
6163;SDS011;3114;48.362;10.994;2022-12-18T14:41:53;25.30;;;10.07;;
6163;SDS011;3114;48.362;10.994;2022-12-18T14:44:20;23.17;;;10.80;;
6163;SDS011;3114;48.362;10.994;2022-12-18T14:46:48;22.37;;;10.10;;
6163;SDS011;3114;48.362;10.994;2022-12-18T14:49:19;22.23;;;10.03;;
6163;SDS011;3114;48.362;10.994;2022-12-18T14:51:48;18.67;;;9.07;;
6163;SDS011;3114;48.362;10.994;2022-12-18T14:54:16;22.03;;;9.10;;
6163;SDS011;3114;48.362;10.994;2022-12-18T14:56:45;22.20;;;9.77;;
6163;SDS011;3114;48.362;10.994;2022-12-18T14:59:14;19.27;;;8.73;;
6163;SDS011;3114;48.362;10.994;2022-12-18T15:01:44;19.13;;;9.10;;